Tanja Jacob — A8YR7 — position and weather

sailwx.info

Track history (hours):
 
Tides and Currents Weather Stations Pressure Air Temp Water Temp Dewpoint Dewpoint Depression Visibility Wind Speed Wind Dir Waves Ship Positions

Tanja Jacob

Last reported at 2016-Aug-26 02:33 UTC. Time now 2016-Aug-26 20:03 UTC.
Position N 36°03' E 014°50'.

Length 227 m; draft 8.3 m.

Type: Ship. MMSI: 636092217.

Date/timePositionNaut miles runAvg speedWind from/ knotsBaromVisibWave heightAir tempDewpointWater temp
2016-Aug-26 02:33N 36°03' E 014°50'1010.6
2016-Aug-26 01:33N 35°58' E 014°39'3 3.0
2016-Aug-26 00:33N 35°56' E 014°36'1 0.9
2016-Aug-25 23:33N 35°57' E 014°37'5 5.2
2016-Aug-25 22:33N 35°58' E 014°43'6 6.4
2016-Aug-25 21:33N 36°01' E 014°50'2 1.6
2016-Aug-25 20:32N 36°01' E 014°52'2 2.3
2016-Aug-25 19:33N 36°01' E 014°55'0 0.1
2016-Aug-25 18:33N 36°01' E 014°55'0 0.1
2016-Aug-25 17:32N 36°01' E 014°54'0 0.0
2016-Aug-25 16:33N 36°01' E 014°54'0 0.0
2016-Aug-25 15:33N 36°01' E 014°54'0 0.0
2016-Aug-25 14:33N 36°00' E 014°54'0 0.0
2016-Aug-25 13:33N 36°00' E 014°54'0 0.1
2016-Aug-25 12:33N 36°00' E 014°54'0 0.1
2016-Aug-25 11:32N 36°00' E 014°54'0 0.0
2016-Aug-25 09:22N 36°00' E 014°54'0 0.0
2016-Aug-25 08:18N 36°00' E 014°54'0 0.4
2016-Aug-25 07:33N 36°01' E 014°54'3 2.9
2016-Aug-25 06:32N 36°03' E 014°53'4 0.7
2016-Aug-25 01:15N 36°00' E 014°55'0 0.2
2016-Aug-25 00:33N 36°00' E 014°55'0 0.1
2016-Aug-24 23:33N 36°00' E 014°55'0 0.1
2016-Aug-24 22:33N 36°00' E 014°55'0 0.0
2016-Aug-24 21:33N 36°00' E 014°55'0 0.0
2016-Aug-24 20:32N 36°00' E 014°55'0 0.0
2016-Aug-24 19:33N 36°00' E 014°55'0 0.0
2016-Aug-24 18:11N 36°00' E 014°55'0 0.0
2016-Aug-24 17:33N 36°00' E 014°55'0 0.1
2016-Aug-24 14:21N 36°00' E 014°55'1 0.0
2016-Aug-24 00:22N 36°00' E 014°54'0 0.0
2016-Aug-23 18:16N 36°00' E 014°54'1 1.2
2016-Aug-23 17:31N 35°60' E 014°53'2 0.4
2016-Aug-23 11:29N 35°58' E 014°54'4 4.2
2016-Aug-23 10:33N 35°58' E 014°50'4 2.0
2016-Aug-23 08:33N 35°55' E 014°46'1 1.2
2016-Aug-23 07:33N 35°56' E 014°46'0 0.3
2016-Aug-23 06:33N 35°57' E 014°47'6 5.8
2016-Aug-23 05:33N 36°01' E 014°42'1312.6
2016-Aug-23 04:33N 36°10' E 014°31'1212.2
2016-Aug-23 03:34N 36°16' E 014°18'1212.2
2016-Aug-23 02:33N 36°21' E 014°04'1212.3
2016-Aug-23 01:33N 36°26' E 013°50'1312.8
2016-Aug-23 00:32N 36°31' E 013°35'1312.8
2016-Aug-22 23:29N 36°36' E 013°20'2712.7
2016-Aug-22 21:21N 36°47' E 012°49'9112.8
2016-Aug-22 14:15N 37°25' E 011°05'912.9
2016-Aug-22 13:32N 37°27' E 010°53'54813.0
2016-Aug-20 19:14N 36°34' W 000°30'912.6
2016-Aug-20 18:30N 36°33' W 000°42'1313.6
2016-Aug-20 17:33N 36°31' W 000°57'1413.7
2016-Aug-20 16:33N 36°29' W 001°14'1313.3
2016-Aug-20 15:33N 36°27' W 001°31'1313.4
2016-Aug-20 14:34N 36°25' W 001°47'4113.2
2016-Aug-20 11:28N 36°19' W 002°37'11514.5
2016-Aug-20 03:33N 36°03' W 004°58'1515.0
2016-Aug-20 02:34N 36°05' W 005°17'2 1.6
2016-Aug-20 01:31N 36°06' W 005°18'2 1.8
2016-Aug-20 00:33N 36°05' W 005°20'4 3.4
2016-Aug-19 23:29N 36°05' W 005°25'0 0.1
2016-Aug-19 22:31N 36°05' W 005°25'0 0.0
2016-Aug-19 21:31N 36°05' W 005°25'0 0.1
2016-Aug-19 20:31N 36°05' W 005°25'0 0.1
2016-Aug-19 19:33N 36°05' W 005°25'0 0.1
2016-Aug-19 18:33N 36°05' W 005°25'0 0.1
2016-Aug-19 17:29N 36°05' W 005°25'0 0.1
2016-Aug-19 16:32N 36°05' W 005°25'0 0.3
2016-Aug-19 15:31N 36°05' W 005°24'0 0.2
2016-Aug-19 14:31N 36°06' W 005°25'0 0.1
2016-Aug-19 13:28N 36°05' W 005°24'0 0.0
2016-Aug-19 12:33N 36°05' W 005°24'0 0.3
2016-Aug-19 11:33N 36°05' W 005°24'2 2.1
2016-Aug-19 10:33N 36°04' W 005°22'5 4.7
2016-Aug-19 09:33N 35°60' W 005°22'7 6.5
2016-Aug-19 08:33N 35°57' W 005°29'9 9.2
2016-Aug-19 07:33N 35°55' W 005°40'1612.0
2016-Aug-19 06:15N 35°55' W 005°59'6413.0
2016-Aug-19 01:18N 36°03' W 007°18'1413.7
2016-Aug-19 00:17N 36°05' W 007°35'1513.2
2016-Aug-18 23:09N 36°08' W 007°53'3713.1
2016-Aug-18 20:18N 36°15' W 008°39'1012.9
2016-Aug-18 19:33N 36°17' W 008°51'1313.3
2016-Aug-18 18:33N 36°19' W 009°07'1413.4
2016-Aug-18 17:33N 36°22' W 009°23'1413.4
2016-Aug-18 16:29N 36°24' W 009°41'9413.6
2016-Aug-18 09:32N 36°39' W 011°37'1713.5
2016-Aug-18 08:17N 36°42' W 011°58'5213.5
2016-Aug-18 04:26N 36°49' W 013°02'1213.2
2016-Aug-18 03:33N 36°50' W 013°16'44713.4
2016-Aug-16 18:13N 37°27' W 022°34'913.2
2016-Aug-16 17:33N 37°28' W 022°46'1313.2
2016-Aug-16 16:33N 37°28' W 023°02'1313.2
2016-Aug-16 15:33N 37°28' W 023°19'1312.6
2016-Aug-16 14:34N 37°29' W 023°35'1312.9
2016-Aug-16 13:33N 37°29' W 023°51'1313.0
2016-Aug-16 12:33N 37°29' W 024°07'1312.7
2016-Aug-16 11:33N 37°29' W 024°23'1313.0
2016-Aug-16 10:34N 37°30' W 024°40'1313.4
2016-Aug-16 09:34N 37°30' W 024°57'1313.3
2016-Aug-16 08:34N 37°30' W 025°13'1313.1
2016-Aug-16 07:34N 37°30' W 025°30'3812.6
2016-Aug-16 04:34N 37°30' W 026°17'1312.8
2016-Aug-16 03:33N 37°30' W 026°34'1313.2
2016-Aug-16 02:33N 37°30' W 026°50'  
Track history (hours):
 
Tides and Currents Weather Stations Pressure Air Temp Water Temp Dewpoint Dewpoint Depression Visibility Wind Speed Wind Dir Waves Ship Positions

Tanja Jacob

Last reported at 2016-Aug-26 02:33 UTC. Time now 2016-Aug-26 20:03 UTC.
Position N 36°03' E 014°50'.

Length 227 m; draft 8.3 m.

Type: Ship. MMSI: 636092217.

Date/timePositionNaut miles runAvg speedWind from/ knotsBaromVisibWave heightAir tempDewpointWater temp
2016-Aug-26 02:33N 36°03' E 014°50'1010.6
2016-Aug-26 01:33N 35°58' E 014°39'3 3.0
2016-Aug-26 00:33N 35°56' E 014°36'1 0.9
2016-Aug-25 23:33N 35°57' E 014°37'5 5.2
2016-Aug-25 22:33N 35°58' E 014°43'6 6.4
2016-Aug-25 21:33N 36°01' E 014°50'2 1.6
2016-Aug-25 20:32N 36°01' E 014°52'2 2.3
2016-Aug-25 19:33N 36°01' E 014°55'0 0.1
2016-Aug-25 18:33N 36°01' E 014°55'0 0.1
2016-Aug-25 17:32N 36°01' E 014°54'0 0.0
2016-Aug-25 16:33N 36°01' E 014°54'0 0.0
2016-Aug-25 15:33N 36°01' E 014°54'0 0.0
2016-Aug-25 14:33N 36°00' E 014°54'0 0.0
2016-Aug-25 13:33N 36°00' E 014°54'0 0.1
2016-Aug-25 12:33N 36°00' E 014°54'0 0.1
2016-Aug-25 11:32N 36°00' E 014°54'0 0.0
2016-Aug-25 09:22N 36°00' E 014°54'0 0.0
2016-Aug-25 08:18N 36°00' E 014°54'0 0.4
2016-Aug-25 07:33N 36°01' E 014°54'3 2.9
2016-Aug-25 06:32N 36°03' E 014°53'4 0.7
2016-Aug-25 01:15N 36°00' E 014°55'0 0.2
2016-Aug-25 00:33N 36°00' E 014°55'0 0.1
2016-Aug-24 23:33N 36°00' E 014°55'0 0.1
2016-Aug-24 22:33N 36°00' E 014°55'0 0.0
2016-Aug-24 21:33N 36°00' E 014°55'0 0.0
2016-Aug-24 20:32N 36°00' E 014°55'0 0.0
2016-Aug-24 19:33N 36°00' E 014°55'0 0.0
2016-Aug-24 18:11N 36°00' E 014°55'0 0.0
2016-Aug-24 17:33N 36°00' E 014°55'0 0.1
2016-Aug-24 14:21N 36°00' E 014°55'1 0.0
2016-Aug-24 00:22N 36°00' E 014°54'0 0.0
2016-Aug-23 18:16N 36°00' E 014°54'1 1.2
2016-Aug-23 17:31N 35°60' E 014°53'2 0.4
2016-Aug-23 11:29N 35°58' E 014°54'4 4.2
2016-Aug-23 10:33N 35°58' E 014°50'4 2.0
2016-Aug-23 08:33N 35°55' E 014°46'1 1.2
2016-Aug-23 07:33N 35°56' E 014°46'0 0.3
2016-Aug-23 06:33N 35°57' E 014°47'6 5.8
2016-Aug-23 05:33N 36°01' E 014°42'1312.6
2016-Aug-23 04:33N 36°10' E 014°31'1212.2
2016-Aug-23 03:34N 36°16' E 014°18'1212.2
2016-Aug-23 02:33N 36°21' E 014°04'1212.3
2016-Aug-23 01:33N 36°26' E 013°50'1312.8
2016-Aug-23 00:32N 36°31' E 013°35'1312.8
2016-Aug-22 23:29N 36°36' E 013°20'2712.7
2016-Aug-22 21:21N 36°47' E 012°49'9112.8
2016-Aug-22 14:15N 37°25' E 011°05'912.9
2016-Aug-22 13:32N 37°27' E 010°53'54813.0
2016-Aug-20 19:14N 36°34' W 000°30'912.6
2016-Aug-20 18:30N 36°33' W 000°42'1313.6
2016-Aug-20 17:33N 36°31' W 000°57'1413.7
2016-Aug-20 16:33N 36°29' W 001°14'1313.3
2016-Aug-20 15:33N 36°27' W 001°31'1313.4
2016-Aug-20 14:34N 36°25' W 001°47'4113.2
2016-Aug-20 11:28N 36°19' W 002°37'11514.5
2016-Aug-20 03:33N 36°03' W 004°58'1515.0
2016-Aug-20 02:34N 36°05' W 005°17'2 1.6
2016-Aug-20 01:31N 36°06' W 005°18'2 1.8
2016-Aug-20 00:33N 36°05' W 005°20'4 3.4
2016-Aug-19 23:29N 36°05' W 005°25'0 0.1
2016-Aug-19 22:31N 36°05' W 005°25'0 0.0
2016-Aug-19 21:31N 36°05' W 005°25'0 0.1
2016-Aug-19 20:31N 36°05' W 005°25'0 0.1
2016-Aug-19 19:33N 36°05' W 005°25'0 0.1
2016-Aug-19 18:33N 36°05' W 005°25'0 0.1
2016-Aug-19 17:29N 36°05' W 005°25'0 0.1
2016-Aug-19 16:32N 36°05' W 005°25'0 0.3
2016-Aug-19 15:31N 36°05' W 005°24'0 0.2
2016-Aug-19 14:31N 36°06' W 005°25'0 0.1
2016-Aug-19 13:28N 36°05' W 005°24'0 0.0
2016-Aug-19 12:33N 36°05' W 005°24'0 0.3
2016-Aug-19 11:33N 36°05' W 005°24'2 2.1
2016-Aug-19 10:33N 36°04' W 005°22'5 4.7
2016-Aug-19 09:33N 35°60' W 005°22'7 6.5
2016-Aug-19 08:33N 35°57' W 005°29'9 9.2
2016-Aug-19 07:33N 35°55' W 005°40'1612.0
2016-Aug-19 06:15N 35°55' W 005°59'6413.0
2016-Aug-19 01:18N 36°03' W 007°18'1413.7
2016-Aug-19 00:17N 36°05' W 007°35'1513.2
2016-Aug-18 23:09N 36°08' W 007°53'3713.1
2016-Aug-18 20:18N 36°15' W 008°39'1012.9
2016-Aug-18 19:33N 36°17' W 008°51'1313.3
2016-Aug-18 18:33N 36°19' W 009°07'1413.4
2016-Aug-18 17:33N 36°22' W 009°23'1413.4
2016-Aug-18 16:29N 36°24' W 009°41'9413.6
2016-Aug-18 09:32N 36°39' W 011°37'1713.5
2016-Aug-18 08:17N 36°42' W 011°58'5213.5
2016-Aug-18 04:26N 36°49' W 013°02'1213.2
2016-Aug-18 03:33N 36°50' W 013°16'44713.4
2016-Aug-16 18:13N 37°27' W 022°34'913.2
2016-Aug-16 17:33N 37°28' W 022°46'1313.2
2016-Aug-16 16:33N 37°28' W 023°02'1313.2
2016-Aug-16 15:33N 37°28' W 023°19'1312.6
2016-Aug-16 14:34N 37°29' W 023°35'1312.9
2016-Aug-16 13:33N 37°29' W 023°51'1313.0
2016-Aug-16 12:33N 37°29' W 024°07'1312.7
2016-Aug-16 11:33N 37°29' W 024°23'1313.0
2016-Aug-16 10:34N 37°30' W 024°40'1313.4
2016-Aug-16 09:34N 37°30' W 024°57'1313.3
2016-Aug-16 08:34N 37°30' W 025°13'1313.1
2016-Aug-16 07:34N 37°30' W 025°30'3812.6
2016-Aug-16 04:34N 37°30' W 026°17'1312.8
2016-Aug-16 03:33N 37°30' W 026°34'1313.2
2016-Aug-16 02:33N 37°30' W 026°50'  

Dump ship's entire track history